sensor_id;sensor_type;location;lat;lon;timestamp;P1;durP1;ratioP1;P2;durP2;ratioP2
8622;SDS011;4349;47.552;8.904;2024-01-11T00:01:08;34.77;;;19.03;;
8622;SDS011;4349;47.552;8.904;2024-01-11T00:03:35;37.10;;;20.07;;
8622;SDS011;4349;47.552;8.904;2024-01-11T00:06:04;37.40;;;20.77;;
8622;SDS011;4349;47.552;8.904;2024-01-11T00:08:32;36.10;;;21.67;;
8622;SDS011;4349;47.552;8.904;2024-01-11T00:11:00;37.33;;;22.13;;
8622;SDS011;4349;47.552;8.904;2024-01-11T00:13:27;38.77;;;21.93;;
8622;SDS011;4349;47.552;8.904;2024-01-11T00:15:55;41.17;;;22.90;;
8622;SDS011;4349;47.552;8.904;2024-01-11T00:18:23;41.03;;;22.37;;
8622;SDS011;4349;47.552;8.904;2024-01-11T00:20:50;37.53;;;22.03;;
8622;SDS011;4349;47.552;8.904;2024-01-11T00:23:19;39.43;;;22.27;;
8622;SDS011;4349;47.552;8.904;2024-01-11T00:25:47;40.03;;;23.63;;
8622;SDS011;4349;47.552;8.904;2024-01-11T00:28:14;37.53;;;22.47;;
8622;SDS011;4349;47.552;8.904;2024-01-11T00:30:42;37.10;;;22.07;;
8622;SDS011;4349;47.552;8.904;2024-01-11T00:33:10;36.13;;;20.23;;
8622;SDS011;4349;47.552;8.904;2024-01-11T00:35:37;36.70;;;21.10;;
8622;SDS011;4349;47.552;8.904;2024-01-11T00:38:05;37.83;;;21.47;;
8622;SDS011;4349;47.552;8.904;2024-01-11T00:40:34;35.37;;;20.53;;
8622;SDS011;4349;47.552;8.904;2024-01-11T00:43:02;37.00;;;21.07;;
8622;SDS011;4349;47.552;8.904;2024-01-11T00:45:29;35.47;;;20.17;;
8622;SDS011;4349;47.552;8.904;2024-01-11T00:47:57;40.13;;;21.77;;
8622;SDS011;4349;47.552;8.904;2024-01-11T00:50:24;40.83;;;22.17;;
8622;SDS011;4349;47.552;8.904;2024-01-11T00:52:52;42.90;;;21.37;;
8622;SDS011;4349;47.552;8.904;2024-01-11T00:55:19;39.13;;;21.90;;
8622;SDS011;4349;47.552;8.904;2024-01-11T00:57:48;37.43;;;21.97;;
8622;SDS011;4349;47.552;8.904;2024-01-11T01:00:16;38.70;;;20.90;;
8622;SDS011;4349;47.552;8.904;2024-01-11T01:02:44;35.53;;;20.63;;
8622;SDS011;4349;47.552;8.904;2024-01-11T01:05:12;40.17;;;21.90;;
8622;SDS011;4349;47.552;8.904;2024-01-11T01:07:40;40.03;;;23.40;;
8622;SDS011;4349;47.552;8.904;2024-01-11T01:10:07;38.10;;;22.27;;
8622;SDS011;4349;47.552;8.904;2024-01-11T01:12:35;41.37;;;22.13;;
8622;SDS011;4349;47.552;8.904;2024-01-11T01:15:05;39.90;;;22.60;;
8622;SDS011;4349;47.552;8.904;2024-01-11T01:17:33;40.80;;;23.07;;
8622;SDS011;4349;47.552;8.904;2024-01-11T01:20:00;39.17;;;21.40;;
8622;SDS011;4349;47.552;8.904;2024-01-11T01:22:28;37.20;;;20.77;;
8622;SDS011;4349;47.552;8.904;2024-01-11T01:24:56;37.90;;;22.30;;
8622;SDS011;4349;47.552;8.904;2024-01-11T01:27:23;39.60;;;21.90;;
8622;SDS011;4349;47.552;8.904;2024-01-11T01:29:51;38.73;;;21.37;;
8622;SDS011;4349;47.552;8.904;2024-01-11T01:32:20;39.47;;;21.13;;
8622;SDS011;4349;47.552;8.904;2024-01-11T01:34:48;41.77;;;23.13;;
8622;SDS011;4349;47.552;8.904;2024-01-11T01:37:16;41.97;;;22.53;;
8622;SDS011;4349;47.552;8.904;2024-01-11T01:39:43;38.20;;;21.90;;
8622;SDS011;4349;47.552;8.904;2024-01-11T01:42:11;39.20;;;21.83;;
8622;SDS011;4349;47.552;8.904;2024-01-11T01:44:38;38.43;;;21.33;;
8622;SDS011;4349;47.552;8.904;2024-01-11T01:47:07;39.60;;;22.50;;
8622;SDS011;4349;47.552;8.904;2024-01-11T01:49:37;38.07;;;21.77;;
8622;SDS011;4349;47.552;8.904;2024-01-11T01:52:05;38.63;;;21.17;;
8622;SDS011;4349;47.552;8.904;2024-01-11T01:54:33;42.60;;;21.90;;
8622;SDS011;4349;47.552;8.904;2024-01-11T01:57:01;41.40;;;22.47;;
8622;SDS011;4349;47.552;8.904;2024-01-11T01:59:30;40.07;;;21.00;;
8622;SDS011;4349;47.552;8.904;2024-01-11T02:01:58;43.10;;;20.83;;
8622;SDS011;4349;47.552;8.904;2024-01-11T02:04:26;42.27;;;22.37;;
8622;SDS011;4349;47.552;8.904;2024-01-11T02:06:55;39.70;;;21.57;;
8622;SDS011;4349;47.552;8.904;2024-01-11T02:09:23;41.83;;;21.67;;
8622;SDS011;4349;47.552;8.904;2024-01-11T02:11:51;42.20;;;21.40;;
8622;SDS011;4349;47.552;8.904;2024-01-11T02:14:19;39.77;;;21.43;;
8622;SDS011;4349;47.552;8.904;2024-01-11T02:16:46;36.10;;;20.03;;
8622;SDS011;4349;47.552;8.904;2024-01-11T02:19:14;35.83;;;19.63;;
8622;SDS011;4349;47.552;8.904;2024-01-11T02:21:45;39.53;;;21.07;;
8622;SDS011;4349;47.552;8.904;2024-01-11T02:24:15;38.53;;;20.77;;
8622;SDS011;4349;47.552;8.904;2024-01-11T02:26:57;37.97;;;20.60;;
8622;SDS011;4349;47.552;8.904;2024-01-11T02:29:25;34.53;;;19.87;;
8622;SDS011;4349;47.552;8.904;2024-01-11T02:31:52;33.60;;;18.87;;
8622;SDS011;4349;47.552;8.904;2024-01-11T02:34:21;32.93;;;19.40;;
8622;SDS011;4349;47.552;8.904;2024-01-11T02:36:48;37.30;;;20.20;;
8622;SDS011;4349;47.552;8.904;2024-01-11T02:39:18;33.53;;;18.80;;
8622;SDS011;4349;47.552;8.904;2024-01-11T02:41:46;38.70;;;21.23;;
8622;SDS011;4349;47.552;8.904;2024-01-11T02:44:15;37.53;;;21.00;;
8622;SDS011;4349;47.552;8.904;2024-01-11T02:46:42;40.17;;;21.77;;
8622;SDS011;4349;47.552;8.904;2024-01-11T02:49:10;38.37;;;21.40;;
8622;SDS011;4349;47.552;8.904;2024-01-11T02:51:37;38.83;;;21.10;;
8622;SDS011;4349;47.552;8.904;2024-01-11T02:54:05;38.87;;;21.17;;
8622;SDS011;4349;47.552;8.904;2024-01-11T02:56:34;40.23;;;21.00;;
8622;SDS011;4349;47.552;8.904;2024-01-11T02:59:02;38.17;;;20.93;;
8622;SDS011;4349;47.552;8.904;2024-01-11T03:01:30;41.73;;;22.03;;
8622;SDS011;4349;47.552;8.904;2024-01-11T03:03:59;40.63;;;21.53;;
8622;SDS011;4349;47.552;8.904;2024-01-11T03:06:26;36.80;;;19.97;;
8622;SDS011;4349;47.552;8.904;2024-01-11T03:08:55;40.67;;;21.17;;
8622;SDS011;4349;47.552;8.904;2024-01-11T03:11:22;40.17;;;20.63;;
8622;SDS011;4349;47.552;8.904;2024-01-11T03:13:51;34.40;;;19.40;;
8622;SDS011;4349;47.552;8.904;2024-01-11T03:16:19;39.57;;;21.37;;
8622;SDS011;4349;47.552;8.904;2024-01-11T03:18:47;40.97;;;21.30;;
8622;SDS011;4349;47.552;8.904;2024-01-11T03:21:14;39.67;;;19.90;;
8622;SDS011;4349;47.552;8.904;2024-01-11T03:23:42;39.53;;;20.30;;
8622;SDS011;4349;47.552;8.904;2024-01-11T03:26:13;40.77;;;21.60;;
8622;SDS011;4349;47.552;8.904;2024-01-11T03:28:41;40.37;;;20.80;;
8622;SDS011;4349;47.552;8.904;2024-01-11T03:31:10;44.73;;;22.00;;
8622;SDS011;4349;47.552;8.904;2024-01-11T03:33:37;40.87;;;21.63;;
8622;SDS011;4349;47.552;8.904;2024-01-11T03:36:08;43.87;;;21.97;;
8622;SDS011;4349;47.552;8.904;2024-01-11T03:38:36;44.70;;;22.47;;
8622;SDS011;4349;47.552;8.904;2024-01-11T03:41:07;43.47;;;22.10;;
8622;SDS011;4349;47.552;8.904;2024-01-11T03:43:34;47.03;;;23.10;;
8622;SDS011;4349;47.552;8.904;2024-01-11T03:46:02;42.63;;;22.77;;
8622;SDS011;4349;47.552;8.904;2024-01-11T03:48:31;45.67;;;23.77;;
8622;SDS011;4349;47.552;8.904;2024-01-11T03:50:59;43.73;;;23.67;;
8622;SDS011;4349;47.552;8.904;2024-01-11T03:53:27;41.63;;;22.23;;
8622;SDS011;4349;47.552;8.904;2024-01-11T03:55:55;45.07;;;23.70;;
8622;SDS011;4349;47.552;8.904;2024-01-11T03:58:22;47.10;;;23.43;;
8622;SDS011;4349;47.552;8.904;2024-01-11T04:00:50;44.37;;;24.03;;
8622;SDS011;4349;47.552;8.904;2024-01-11T04:03:18;50.63;;;25.00;;
8622;SDS011;4349;47.552;8.904;2024-01-11T04:05:47;44.37;;;24.63;;
8622;SDS011;4349;47.552;8.904;2024-01-11T04:08:15;45.60;;;24.50;;
8622;SDS011;4349;47.552;8.904;2024-01-11T04:10:43;43.53;;;23.87;;
8622;SDS011;4349;47.552;8.904;2024-01-11T04:13:10;46.03;;;24.97;;
8622;SDS011;4349;47.552;8.904;2024-01-11T04:15:38;45.77;;;25.50;;
8622;SDS011;4349;47.552;8.904;2024-01-11T04:18:05;45.40;;;25.33;;
8622;SDS011;4349;47.552;8.904;2024-01-11T04:20:33;44.43;;;25.07;;
8622;SDS011;4349;47.552;8.904;2024-01-11T04:23:03;47.20;;;24.77;;
8622;SDS011;4349;47.552;8.904;2024-01-11T04:25:31;47.23;;;24.93;;
8622;SDS011;4349;47.552;8.904;2024-01-11T04:27:58;43.07;;;24.47;;
8622;SDS011;4349;47.552;8.904;2024-01-11T04:30:26;44.13;;;24.03;;
8622;SDS011;4349;47.552;8.904;2024-01-11T04:32:53;40.67;;;22.93;;
8622;SDS011;4349;47.552;8.904;2024-01-11T04:35:21;40.07;;;22.20;;
8622;SDS011;4349;47.552;8.904;2024-01-11T04:37:49;38.77;;;22.00;;
8622;SDS011;4349;47.552;8.904;2024-01-11T04:40:18;41.70;;;22.50;;
8622;SDS011;4349;47.552;8.904;2024-01-11T04:42:45;39.27;;;22.10;;
8622;SDS011;4349;47.552;8.904;2024-01-11T04:45:13;36.23;;;21.27;;
8622;SDS011;4349;47.552;8.904;2024-01-11T04:47:41;39.43;;;22.73;;
8622;SDS011;4349;47.552;8.904;2024-01-11T04:50:09;39.97;;;22.47;;
8622;SDS011;4349;47.552;8.904;2024-01-11T04:52:36;39.50;;;23.03;;
8622;SDS011;4349;47.552;8.904;2024-01-11T04:55:04;43.43;;;22.67;;
8622;SDS011;4349;47.552;8.904;2024-01-11T04:57:33;45.60;;;24.03;;
8622;SDS011;4349;47.552;8.904;2024-01-11T05:00:01;40.20;;;22.93;;
8622;SDS011;4349;47.552;8.904;2024-01-11T05:02:29;42.57;;;24.57;;
8622;SDS011;4349;47.552;8.904;2024-01-11T05:04:57;43.17;;;25.03;;
8622;SDS011;4349;47.552;8.904;2024-01-11T05:07:25;45.57;;;25.77;;
8622;SDS011;4349;47.552;8.904;2024-01-11T05:09:54;43.77;;;26.10;;
8622;SDS011;4349;47.552;8.904;2024-01-11T05:12:22;43.30;;;25.87;;
8622;SDS011;4349;47.552;8.904;2024-01-11T05:14:51;44.73;;;25.33;;
8622;SDS011;4349;47.552;8.904;2024-01-11T05:17:18;44.90;;;26.63;;
8622;SDS011;4349;47.552;8.904;2024-01-11T05:19:46;47.37;;;26.27;;
8622;SDS011;4349;47.552;8.904;2024-01-11T05:22:13;43.83;;;25.60;;
8622;SDS011;4349;47.552;8.904;2024-01-11T05:24:41;40.87;;;23.53;;
8622;SDS011;4349;47.552;8.904;2024-01-11T05:27:09;44.10;;;24.67;;
8622;SDS011;4349;47.552;8.904;2024-01-11T05:29:36;40.93;;;23.77;;
8622;SDS011;4349;47.552;8.904;2024-01-11T05:32:06;44.80;;;24.13;;
8622;SDS011;4349;47.552;8.904;2024-01-11T05:34:34;46.33;;;24.70;;
8622;SDS011;4349;47.552;8.904;2024-01-11T05:37:01;44.83;;;24.60;;
8622;SDS011;4349;47.552;8.904;2024-01-11T05:39:29;49.33;;;25.43;;
8622;SDS011;4349;47.552;8.904;2024-01-11T05:41:56;40.93;;;23.03;;
8622;SDS011;4349;47.552;8.904;2024-01-11T05:44:24;44.87;;;24.90;;
8622;SDS011;4349;47.552;8.904;2024-01-11T05:46:52;42.37;;;23.03;;
8622;SDS011;4349;47.552;8.904;2024-01-11T05:49:20;47.43;;;23.83;;
8622;SDS011;4349;47.552;8.904;2024-01-11T05:51:48;40.00;;;22.57;;
8622;SDS011;4349;47.552;8.904;2024-01-11T05:54:16;40.93;;;22.70;;
8622;SDS011;4349;47.552;8.904;2024-01-11T05:56:43;39.00;;;21.77;;
8622;SDS011;4349;47.552;8.904;2024-01-11T05:59:11;39.83;;;21.30;;
8622;SDS011;4349;47.552;8.904;2024-01-11T06:01:40;42.73;;;23.27;;
8622;SDS011;4349;47.552;8.904;2024-01-11T06:04:07;42.97;;;23.70;;
8622;SDS011;4349;47.552;8.904;2024-01-11T06:06:36;41.93;;;24.83;;
8622;SDS011;4349;47.552;8.904;2024-01-11T06:09:04;44.17;;;24.90;;
8622;SDS011;4349;47.552;8.904;2024-01-11T06:11:32;47.53;;;24.93;;
8622;SDS011;4349;47.552;8.904;2024-01-11T06:13:59;44.40;;;23.90;;
8622;SDS011;4349;47.552;8.904;2024-01-11T06:16:27;45.40;;;24.37;;
8622;SDS011;4349;47.552;8.904;2024-01-11T06:18:55;43.33;;;24.40;;
8622;SDS011;4349;47.552;8.904;2024-01-11T06:21:23;44.17;;;24.40;;
8622;SDS011;4349;47.552;8.904;2024-01-11T06:23:52;48.10;;;25.30;;
8622;SDS011;4349;47.552;8.904;2024-01-11T06:26:19;44.63;;;25.07;;
8622;SDS011;4349;47.552;8.904;2024-01-11T06:28:47;45.33;;;24.67;;
8622;SDS011;4349;47.552;8.904;2024-01-11T06:31:14;43.57;;;23.97;;
8622;SDS011;4349;47.552;8.904;2024-01-11T06:33:43;45.27;;;24.90;;
8622;SDS011;4349;47.552;8.904;2024-01-11T06:36:14;44.90;;;24.13;;
8622;SDS011;4349;47.552;8.904;2024-01-11T06:38:42;42.20;;;22.87;;
8622;SDS011;4349;47.552;8.904;2024-01-11T06:41:11;42.77;;;23.20;;
8622;SDS011;4349;47.552;8.904;2024-01-11T06:43:38;42.17;;;23.37;;
8622;SDS011;4349;47.552;8.904;2024-01-11T06:46:06;45.77;;;23.80;;
8622;SDS011;4349;47.552;8.904;2024-01-11T06:48:35;42.17;;;23.27;;
8622;SDS011;4349;47.552;8.904;2024-01-11T06:51:03;40.13;;;22.80;;
8622;SDS011;4349;47.552;8.904;2024-01-11T06:53:31;43.87;;;22.67;;
8622;SDS011;4349;47.552;8.904;2024-01-11T06:55:58;43.33;;;22.80;;
8622;SDS011;4349;47.552;8.904;2024-01-11T06:58:27;40.27;;;22.23;;
8622;SDS011;4349;47.552;8.904;2024-01-11T07:00:55;40.47;;;22.17;;
8622;SDS011;4349;47.552;8.904;2024-01-11T07:03:23;40.93;;;21.93;;
8622;SDS011;4349;47.552;8.904;2024-01-11T07:05:51;39.23;;;21.90;;
8622;SDS011;4349;47.552;8.904;2024-01-11T07:08:20;41.97;;;21.70;;
8622;SDS011;4349;47.552;8.904;2024-01-11T07:10:48;39.80;;;22.73;;
8622;SDS011;4349;47.552;8.904;2024-01-11T07:13:17;41.27;;;23.47;;
8622;SDS011;4349;47.552;8.904;2024-01-11T07:15:47;43.97;;;23.13;;
8622;SDS011;4349;47.552;8.904;2024-01-11T07:18:14;44.87;;;24.33;;
8622;SDS011;4349;47.552;8.904;2024-01-11T07:20:42;43.07;;;24.43;;
8622;SDS011;4349;47.552;8.904;2024-01-11T07:23:10;45.70;;;24.10;;
8622;SDS011;4349;47.552;8.904;2024-01-11T07:25:37;38.47;;;22.90;;
8622;SDS011;4349;47.552;8.904;2024-01-11T07:28:05;44.37;;;24.13;;
8622;SDS011;4349;47.552;8.904;2024-01-11T07:30:33;44.10;;;23.70;;
8622;SDS011;4349;47.552;8.904;2024-01-11T07:33:02;47.90;;;25.70;;
8622;SDS011;4349;47.552;8.904;2024-01-11T07:35:31;45.60;;;24.20;;
8622;SDS011;4349;47.552;8.904;2024-01-11T07:37:58;46.07;;;25.03;;
8622;SDS011;4349;47.552;8.904;2024-01-11T07:40:26;38.03;;;22.50;;
8622;SDS011;4349;47.552;8.904;2024-01-11T07:42:56;44.83;;;24.00;;
8622;SDS011;4349;47.552;8.904;2024-01-11T07:45:24;42.50;;;23.30;;
8622;SDS011;4349;47.552;8.904;2024-01-11T07:47:51;34.97;;;21.23;;
8622;SDS011;4349;47.552;8.904;2024-01-11T07:50:20;42.97;;;22.70;;
8622;SDS011;4349;47.552;8.904;2024-01-11T07:52:48;44.23;;;23.37;;
8622;SDS011;4349;47.552;8.904;2024-01-11T07:55:15;40.80;;;22.23;;
8622;SDS011;4349;47.552;8.904;2024-01-11T07:57:43;37.47;;;21.10;;
8622;SDS011;4349;47.552;8.904;2024-01-11T08:00:11;34.30;;;21.10;;
8622;SDS011;4349;47.552;8.904;2024-01-11T08:02:38;34.00;;;20.07;;
8622;SDS011;4349;47.552;8.904;2024-01-11T08:05:07;35.93;;;19.63;;
8622;SDS011;4349;47.552;8.904;2024-01-11T08:07:36;33.37;;;18.17;;
8622;SDS011;4349;47.552;8.904;2024-01-11T08:10:04;34.33;;;19.17;;
8622;SDS011;4349;47.552;8.904;2024-01-11T08:12:33;30.03;;;18.03;;
8622;SDS011;4349;47.552;8.904;2024-01-11T08:15:00;28.90;;;17.80;;
8622;SDS011;4349;47.552;8.904;2024-01-11T08:17:28;31.80;;;18.10;;
8622;SDS011;4349;47.552;8.904;2024-01-11T08:19:56;31.33;;;18.97;;
8622;SDS011;4349;47.552;8.904;2024-01-11T08:22:23;32.90;;;17.97;;
8622;SDS011;4349;47.552;8.904;2024-01-11T08:24:54;36.17;;;19.20;;
8622;SDS011;4349;47.552;8.904;2024-01-11T08:27:22;31.77;;;18.60;;
8622;SDS011;4349;47.552;8.904;2024-01-11T08:29:49;35.10;;;19.60;;
8622;SDS011;4349;47.552;8.904;2024-01-11T08:32:17;33.70;;;17.70;;
8622;SDS011;4349;47.552;8.904;2024-01-11T08:34:57;32.37;;;17.70;;
8622;SDS011;4349;47.552;8.904;2024-01-11T08:37:25;30.87;;;18.43;;
8622;SDS011;4349;47.552;8.904;2024-01-11T08:39:52;31.20;;;18.50;;
8622;SDS011;4349;47.552;8.904;2024-01-11T08:42:21;34.87;;;18.73;;
8622;SDS011;4349;47.552;8.904;2024-01-11T08:44:49;34.57;;;19.80;;
8622;SDS011;4349;47.552;8.904;2024-01-11T08:47:18;33.13;;;18.33;;
8622;SDS011;4349;47.552;8.904;2024-01-11T08:49:45;39.00;;;20.43;;
8622;SDS011;4349;47.552;8.904;2024-01-11T08:52:13;32.10;;;19.67;;
8622;SDS011;4349;47.552;8.904;2024-01-11T08:54:40;36.47;;;21.40;;
8622;SDS011;4349;47.552;8.904;2024-01-11T08:57:08;43.27;;;22.80;;
8622;SDS011;4349;47.552;8.904;2024-01-11T08:59:37;40.83;;;22.20;;
8622;SDS011;4349;47.552;8.904;2024-01-11T09:02:05;36.93;;;20.47;;
8622;SDS011;4349;47.552;8.904;2024-01-11T09:04:42;30.00;;;17.63;;
8622;SDS011;4349;47.552;8.904;2024-01-11T09:07:10;32.17;;;17.93;;
8622;SDS011;4349;47.552;8.904;2024-01-11T09:09:37;32.90;;;18.00;;
8622;SDS011;4349;47.552;8.904;2024-01-11T09:12:16;29.20;;;17.93;;
8622;SDS011;4349;47.552;8.904;2024-01-11T09:14:45;30.80;;;16.83;;
8622;SDS011;4349;47.552;8.904;2024-01-11T09:17:12;38.63;;;20.40;;
8622;SDS011;4349;47.552;8.904;2024-01-11T09:19:40;41.80;;;22.97;;
8622;SDS011;4349;47.552;8.904;2024-01-11T09:22:08;45.73;;;24.13;;
8622;SDS011;4349;47.552;8.904;2024-01-11T09:24:36;47.73;;;24.53;;
8622;SDS011;4349;47.552;8.904;2024-01-11T09:27:05;48.23;;;25.33;;
8622;SDS011;4349;47.552;8.904;2024-01-11T09:29:33;47.93;;;24.10;;
8622;SDS011;4349;47.552;8.904;2024-01-11T09:32:02;46.47;;;24.33;;
8622;SDS011;4349;47.552;8.904;2024-01-11T09:34:31;48.80;;;25.63;;
8622;SDS011;4349;47.552;8.904;2024-01-11T09:36:59;45.77;;;23.77;;
8622;SDS011;4349;47.552;8.904;2024-01-11T09:39:27;46.63;;;24.70;;
8622;SDS011;4349;47.552;8.904;2024-01-11T09:41:57;45.23;;;25.57;;
8622;SDS011;4349;47.552;8.904;2024-01-11T09:44:25;48.63;;;25.10;;
8622;SDS011;4349;47.552;8.904;2024-01-11T09:46:53;45.70;;;24.20;;
8622;SDS011;4349;47.552;8.904;2024-01-11T09:49:23;47.23;;;24.13;;
8622;SDS011;4349;47.552;8.904;2024-01-11T09:51:51;51.37;;;25.27;;
8622;SDS011;4349;47.552;8.904;2024-01-11T09:54:19;46.93;;;25.33;;
8622;SDS011;4349;47.552;8.904;2024-01-11T09:56:47;46.93;;;24.03;;
8622;SDS011;4349;47.552;8.904;2024-01-11T09:59:18;47.07;;;24.10;;
8622;SDS011;4349;47.552;8.904;2024-01-11T10:01:46;43.70;;;24.63;;
8622;SDS011;4349;47.552;8.904;2024-01-11T10:04:13;47.63;;;24.87;;
8622;SDS011;4349;47.552;8.904;2024-01-11T10:06:43;49.40;;;24.90;;
8622;SDS011;4349;47.552;8.904;2024-01-11T10:09:11;45.13;;;23.97;;
8622;SDS011;4349;47.552;8.904;2024-01-11T10:11:39;47.37;;;24.77;;
8622;SDS011;4349;47.552;8.904;2024-01-11T10:14:07;45.60;;;24.10;;
8622;SDS011;4349;47.552;8.904;2024-01-11T10:16:34;49.87;;;23.97;;
8622;SDS011;4349;47.552;8.904;2024-01-11T10:19:02;46.17;;;24.70;;
8622;SDS011;4349;47.552;8.904;2024-01-11T10:21:30;46.77;;;25.83;;
8622;SDS011;4349;47.552;8.904;2024-01-11T10:23:59;48.10;;;23.73;;
8622;SDS011;4349;47.552;8.904;2024-01-11T10:26:30;46.07;;;24.10;;
8622;SDS011;4349;47.552;8.904;2024-01-11T10:28:59;45.73;;;23.93;;
8622;SDS011;4349;47.552;8.904;2024-01-11T10:31:28;42.83;;;23.50;;
8622;SDS011;4349;47.552;8.904;2024-01-11T10:33:55;47.47;;;24.70;;
8622;SDS011;4349;47.552;8.904;2024-01-11T10:36:24;41.40;;;22.23;;
8622;SDS011;4349;47.552;8.904;2024-01-11T10:38:52;43.07;;;24.33;;
8622;SDS011;4349;47.552;8.904;2024-01-11T10:41:21;41.97;;;23.43;;
8622;SDS011;4349;47.552;8.904;2024-01-11T10:43:49;40.27;;;22.70;;
8622;SDS011;4349;47.552;8.904;2024-01-11T10:46:18;41.20;;;24.10;;
8622;SDS011;4349;47.552;8.904;2024-01-11T10:48:48;46.83;;;24.23;;
8622;SDS011;4349;47.552;8.904;2024-01-11T10:51:18;43.20;;;22.93;;
8622;SDS011;4349;47.552;8.904;2024-01-11T10:53:47;42.97;;;22.03;;
8622;SDS011;4349;47.552;8.904;2024-01-11T10:56:17;44.07;;;23.00;;
8622;SDS011;4349;47.552;8.904;2024-01-11T10:58:46;44.50;;;23.93;;
8622;SDS011;4349;47.552;8.904;2024-01-11T11:01:15;42.60;;;23.00;;
8622;SDS011;4349;47.552;8.904;2024-01-11T11:03:44;47.83;;;23.83;;
8622;SDS011;4349;47.552;8.904;2024-01-11T11:06:13;45.53;;;24.17;;
8622;SDS011;4349;47.552;8.904;2024-01-11T11:08:41;41.97;;;23.73;;
8622;SDS011;4349;47.552;8.904;2024-01-11T11:11:09;42.23;;;22.67;;
8622;SDS011;4349;47.552;8.904;2024-01-11T11:13:36;46.73;;;26.83;;
8622;SDS011;4349;47.552;8.904;2024-01-11T11:16:06;45.33;;;26.07;;
8622;SDS011;4349;47.552;8.904;2024-01-11T11:18:34;41.10;;;22.37;;
8622;SDS011;4349;47.552;8.904;2024-01-11T11:21:06;43.20;;;23.50;;
8622;SDS011;4349;47.552;8.904;2024-01-11T11:23:36;40.70;;;23.23;;
8622;SDS011;4349;47.552;8.904;2024-01-11T11:26:05;39.30;;;22.77;;
8622;SDS011;4349;47.552;8.904;2024-01-11T11:28:33;40.77;;;21.80;;
8622;SDS011;4349;47.552;8.904;2024-01-11T11:31:03;40.77;;;23.00;;
8622;SDS011;4349;47.552;8.904;2024-01-11T11:33:32;42.67;;;22.07;;
8622;SDS011;4349;47.552;8.904;2024-01-11T11:35:59;37.80;;;21.47;;
8622;SDS011;4349;47.552;8.904;2024-01-11T11:38:27;40.30;;;21.20;;
8622;SDS011;4349;47.552;8.904;2024-01-11T11:40:56;39.17;;;21.30;;
8622;SDS011;4349;47.552;8.904;2024-01-11T11:43:26;39.90;;;21.93;;
8622;SDS011;4349;47.552;8.904;2024-01-11T11:45:54;43.30;;;22.20;;
8622;SDS011;4349;47.552;8.904;2024-01-11T11:51:14;34.87;;;20.37;;
8622;SDS011;4349;47.552;8.904;2024-01-11T11:53:46;33.47;;;20.50;;
8622;SDS011;4349;47.552;8.904;2024-01-11T11:56:15;34.13;;;19.17;;
8622;SDS011;4349;47.552;8.904;2024-01-11T11:58:44;34.03;;;18.73;;
8622;SDS011;4349;47.552;8.904;2024-01-11T12:01:12;35.07;;;19.57;;
8622;SDS011;4349;47.552;8.904;2024-01-11T12:03:40;33.80;;;18.03;;
8622;SDS011;4349;47.552;8.904;2024-01-11T12:06:09;38.37;;;20.67;;
8622;SDS011;4349;47.552;8.904;2024-01-11T12:08:38;32.77;;;18.43;;
8622;SDS011;4349;47.552;8.904;2024-01-11T12:11:08;36.30;;;22.03;;
8622;SDS011;4349;47.552;8.904;2024-01-11T12:13:36;42.57;;;23.23;;
8622;SDS011;4349;47.552;8.904;2024-01-11T12:16:04;39.77;;;21.80;;
8622;SDS011;4349;47.552;8.904;2024-01-11T12:18:31;40.57;;;22.57;;
8622;SDS011;4349;47.552;8.904;2024-01-11T12:21:00;39.97;;;21.77;;
8622;SDS011;4349;47.552;8.904;2024-01-11T12:23:28;38.27;;;21.27;;
8622;SDS011;4349;47.552;8.904;2024-01-11T12:25:58;43.10;;;22.87;;
8622;SDS011;4349;47.552;8.904;2024-01-11T12:28:28;37.03;;;21.43;;
8622;SDS011;4349;47.552;8.904;2024-01-11T12:30:55;38.37;;;20.40;;
8622;SDS011;4349;47.552;8.904;2024-01-11T12:33:23;38.37;;;20.83;;
8622;SDS011;4349;47.552;8.904;2024-01-11T12:35:52;38.03;;;20.97;;
8622;SDS011;4349;47.552;8.904;2024-01-11T12:38:20;40.50;;;23.00;;
8622;SDS011;4349;47.552;8.904;2024-01-11T12:40:47;38.60;;;21.87;;
8622;SDS011;4349;47.552;8.904;2024-01-11T12:43:17;43.47;;;22.70;;
8622;SDS011;4349;47.552;8.904;2024-01-11T12:45:44;41.13;;;21.33;;
8622;SDS011;4349;47.552;8.904;2024-01-11T12:48:12;36.43;;;21.03;;
8622;SDS011;4349;47.552;8.904;2024-01-11T12:50:43;38.40;;;21.33;;
8622;SDS011;4349;47.552;8.904;2024-01-11T12:53:11;41.13;;;21.57;;
8622;SDS011;4349;47.552;8.904;2024-01-11T12:55:44;39.37;;;21.53;;
8622;SDS011;4349;47.552;8.904;2024-01-11T12:58:24;39.07;;;20.03;;
8622;SDS011;4349;47.552;8.904;2024-01-11T13:00:53;39.43;;;21.00;;
8622;SDS011;4349;47.552;8.904;2024-01-11T13:03:21;39.00;;;20.30;;
8622;SDS011;4349;47.552;8.904;2024-01-11T13:05:50;34.23;;;19.37;;
8622;SDS011;4349;47.552;8.904;2024-01-11T13:08:18;33.27;;;19.30;;
8622;SDS011;4349;47.552;8.904;2024-01-11T13:10:47;36.43;;;20.03;;
8622;SDS011;4349;47.552;8.904;2024-01-11T13:13:15;38.00;;;20.03;;
8622;SDS011;4349;47.552;8.904;2024-01-11T13:15:44;35.97;;;18.77;;
8622;SDS011;4349;47.552;8.904;2024-01-11T13:18:12;38.13;;;19.47;;
8622;SDS011;4349;47.552;8.904;2024-01-11T13:20:40;37.10;;;19.23;;
8622;SDS011;4349;47.552;8.904;2024-01-11T13:23:12;38.50;;;19.83;;
8622;SDS011;4349;47.552;8.904;2024-01-11T13:25:41;34.00;;;18.27;;
8622;SDS011;4349;47.552;8.904;2024-01-11T13:28:09;36.07;;;19.60;;
8622;SDS011;4349;47.552;8.904;2024-01-11T13:30:37;36.40;;;19.63;;
8622;SDS011;4349;47.552;8.904;2024-01-11T13:33:07;36.10;;;18.50;;
8622;SDS011;4349;47.552;8.904;2024-01-11T13:35:35;35.60;;;18.90;;
8622;SDS011;4349;47.552;8.904;2024-01-11T13:38:03;33.73;;;18.53;;
8622;SDS011;4349;47.552;8.904;2024-01-11T13:40:31;32.37;;;18.53;;
8622;SDS011;4349;47.552;8.904;2024-01-11T13:42:59;33.57;;;18.10;;
8622;SDS011;4349;47.552;8.904;2024-01-11T13:45:27;33.03;;;17.73;;
8622;SDS011;4349;47.552;8.904;2024-01-11T13:47:56;28.33;;;16.10;;
8622;SDS011;4349;47.552;8.904;2024-01-11T13:50:25;30.03;;;17.03;;
8622;SDS011;4349;47.552;8.904;2024-01-11T13:52:53;28.07;;;15.93;;
8622;SDS011;4349;47.552;8.904;2024-01-11T13:55:21;30.43;;;18.33;;
8622;SDS011;4349;47.552;8.904;2024-01-11T13:57:51;32.13;;;16.97;;
8622;SDS011;4349;47.552;8.904;2024-01-11T14:00:19;30.47;;;16.83;;
8622;SDS011;4349;47.552;8.904;2024-01-11T14:02:47;28.27;;;16.67;;
8622;SDS011;4349;47.552;8.904;2024-01-11T14:05:15;32.93;;;17.47;;
8622;SDS011;4349;47.552;8.904;2024-01-11T14:07:46;30.57;;;16.50;;
8622;SDS011;4349;47.552;8.904;2024-01-11T14:10:14;31.33;;;16.87;;
8622;SDS011;4349;47.552;8.904;2024-01-11T14:12:42;31.20;;;17.27;;
8622;SDS011;4349;47.552;8.904;2024-01-11T14:15:09;30.97;;;16.40;;
8622;SDS011;4349;47.552;8.904;2024-01-11T14:17:39;32.10;;;16.63;;
8622;SDS011;4349;47.552;8.904;2024-01-11T14:20:08;28.77;;;17.97;;
8622;SDS011;4349;47.552;8.904;2024-01-11T14:22:41;30.67;;;17.30;;
8622;SDS011;4349;47.552;8.904;2024-01-11T14:25:14;32.43;;;18.13;;
8622;SDS011;4349;47.552;8.904;2024-01-11T14:27:42;30.77;;;17.97;;
8622;SDS011;4349;47.552;8.904;2024-01-11T14:30:11;35.90;;;18.23;;
8622;SDS011;4349;47.552;8.904;2024-01-11T14:32:39;33.37;;;17.63;;
8622;SDS011;4349;47.552;8.904;2024-01-11T14:35:07;29.80;;;16.67;;
8622;SDS011;4349;47.552;8.904;2024-01-11T14:37:36;27.67;;;15.77;;
8622;SDS011;4349;47.552;8.904;2024-01-11T14:40:05;30.73;;;16.27;;
8622;SDS011;4349;47.552;8.904;2024-01-11T14:42:34;29.47;;;17.03;;
8622;SDS011;4349;47.552;8.904;2024-01-11T14:45:02;29.30;;;16.07;;
8622;SDS011;4349;47.552;8.904;2024-01-11T14:47:30;30.33;;;16.17;;
8622;SDS011;4349;47.552;8.904;2024-01-11T14:49:58;27.63;;;15.30;;
8622;SDS011;4349;47.552;8.904;2024-01-11T14:52:26;29.13;;;16.33;;
8622;SDS011;4349;47.552;8.904;2024-01-11T14:54:54;28.07;;;16.00;;
8622;SDS011;4349;47.552;8.904;2024-01-11T14:57:21;30.23;;;16.27;;